Philadelphia, Pennsylvania
Traffic Map
Current Weather Conditions
Philadelphia, Pennsylvania
Scattered Clouds
Scattered Clouds

Feels Like: 4°
Wind Chill: Ceiling: Unl
Heat Index: Visibility: 10mi
Dew Point: Wind: 5mph
Humidity: 67% Direction: 180° (S)
Pressure: 30.13in Gusts: 0mph
Raw Report DataKPHL 200954Z 18004KT 10SM FEW160 SCT250 06/00 A3013 RMK AO2 SLP200 T00560000 $
Traffic Incident Summary
Active as of:
Severity:
Category:
InformationThere was an issue retrieving the traffic information for this location. Please try a different location or try again shortly.
Advertisements
Track Severe Weather on mobile